sensor_id;sensor_type;location;lat;lon;timestamp;pressure;altitude;pressure_sealevel;temperature;humidity
80938;BME280;70395;51.382;7.074;2024-01-11T00:00:35;101903.78;;;-4.55;50.66
80938;BME280;70395;51.382;7.074;2024-01-11T00:03:01;101906.41;;;-4.58;50.78
80938;BME280;70395;51.382;7.074;2024-01-11T00:05:27;101909.03;;;-4.63;51.07
80938;BME280;70395;51.382;7.074;2024-01-11T00:07:53;101900.34;;;-4.70;51.03
80938;BME280;70395;51.382;7.074;2024-01-11T00:10:19;101911.69;;;-4.71;51.13
80938;BME280;70395;51.382;7.074;2024-01-11T00:12:46;101916.06;;;-4.73;51.03
80938;BME280;70395;51.382;7.074;2024-01-11T00:15:12;101912.56;;;-4.73;51.17
80938;BME280;70395;51.382;7.074;2024-01-11T00:17:38;101911.69;;;-4.74;51.35
80938;BME280;70395;51.382;7.074;2024-01-11T00:20:05;101909.97;;;-4.77;51.52
80938;BME280;70395;51.382;7.074;2024-01-11T00:22:31;101899.53;;;-4.80;51.57
80938;BME280;70395;51.382;7.074;2024-01-11T00:24:57;101895.16;;;-4.81;51.63
80938;BME280;70395;51.382;7.074;2024-01-11T00:27:23;101891.69;;;-4.84;51.79
80938;BME280;70395;51.382;7.074;2024-01-11T00:29:49;101902.16;;;-4.86;51.51
80938;BME280;70395;51.382;7.074;2024-01-11T00:32:15;101896.91;;;-4.86;51.53
80938;BME280;70395;51.382;7.074;2024-01-11T00:34:40;101888.19;;;-4.87;51.64
80938;BME280;70395;51.382;7.074;2024-01-11T00:37:06;101882.09;;;-4.89;51.55
80938;BME280;70395;51.382;7.074;2024-01-11T00:39:32;101886.47;;;-4.91;51.48
80938;BME280;70395;51.382;7.074;2024-01-11T00:41:58;101880.41;;;-4.94;51.59
80938;BME280;70395;51.382;7.074;2024-01-11T00:44:24;101883.84;;;-4.94;51.57
80938;BME280;70395;51.382;7.074;2024-01-11T00:46:49;101893.47;;;-4.93;51.30
80938;BME280;70395;51.382;7.074;2024-01-11T00:49:15;101895.19;;;-4.93;51.63
80938;BME280;70395;51.382;7.074;2024-01-11T00:51:41;101896.09;;;-4.93;51.56
80938;BME280;70395;51.382;7.074;2024-01-11T00:54:07;101891.75;;;-4.97;51.47
80938;BME280;70395;51.382;7.074;2024-01-11T00:56:33;101890.88;;;-5.01;51.70
80938;BME280;70395;51.382;7.074;2024-01-11T00:58:58;101883.91;;;-5.05;51.64
80938;BME280;70395;51.382;7.074;2024-01-11T01:01:24;101883.03;;;-5.09;51.71
80938;BME280;70395;51.382;7.074;2024-01-11T01:03:50;101886.56;;;-5.13;51.90
80938;BME280;70395;51.382;7.074;2024-01-11T01:06:16;101888.31;;;-5.16;52.02
80938;BME280;70395;51.382;7.074;2024-01-11T01:08:41;101886.56;;;-5.21;52.08
80938;BME280;70395;51.382;7.074;2024-01-11T01:11:07;101884.00;;;-5.24;52.23
80938;BME280;70395;51.382;7.074;2024-01-11T01:13:33;101884.88;;;-5.26;52.37
80938;BME280;70395;51.382;7.074;2024-01-11T01:15:59;101888.34;;;-5.31;52.31
80938;BME280;70395;51.382;7.074;2024-01-11T01:18:24;101880.50;;;-5.32;52.31
80938;BME280;70395;51.382;7.074;2024-01-11T01:20:51;101885.72;;;-5.31;52.35
80938;BME280;70395;51.382;7.074;2024-01-11T01:23:16;101888.34;;;-5.32;52.58
80938;BME280;70395;51.382;7.074;2024-01-11T01:25:43;101893.59;;;-5.35;52.53
80938;BME280;70395;51.382;7.074;2024-01-11T01:28:09;101890.13;;;-5.39;52.75
80938;BME280;70395;51.382;7.074;2024-01-11T01:30:35;101889.25;;;-5.41;52.93
80938;BME280;70395;51.382;7.074;2024-01-11T01:33:01;101893.59;;;-5.43;52.83
80938;BME280;70395;51.382;7.074;2024-01-11T01:35:27;101901.44;;;-5.45;52.86
80938;BME280;70395;51.382;7.074;2024-01-11T01:37:52;101894.50;;;-5.46;52.88
80938;BME280;70395;51.382;7.074;2024-01-11T01:40:18;101903.19;;;-5.45;52.77
80938;BME280;70395;51.382;7.074;2024-01-11T01:42:45;101911.03;;;-5.45;52.93
80938;BME280;70395;51.382;7.074;2024-01-11T01:45:12;101913.66;;;-5.47;52.81
80938;BME280;70395;51.382;7.074;2024-01-11T01:47:40;101909.31;;;-5.46;52.80
80938;BME280;70395;51.382;7.074;2024-01-11T01:50:09;101908.41;;;-5.45;52.71
80938;BME280;70395;51.382;7.074;2024-01-11T01:52:38;101899.72;;;-5.44;52.89
80938;BME280;70395;51.382;7.074;2024-01-11T01:55:09;101891.88;;;-5.41;52.80
80938;BME280;70395;51.382;7.074;2024-01-11T01:57:36;101887.47;;;-5.40;52.67
80938;BME280;70395;51.382;7.074;2024-01-11T02:00:05;101887.50;;;-5.39;52.76
80938;BME280;70395;51.382;7.074;2024-01-11T02:02:32;101894.47;;;-5.35;52.81
80938;BME280;70395;51.382;7.074;2024-01-11T02:05:00;101886.59;;;-5.35;52.73
80938;BME280;70395;51.382;7.074;2024-01-11T02:07:26;101887.50;;;-5.34;52.57
80938;BME280;70395;51.382;7.074;2024-01-11T02:09:52;101895.31;;;-5.33;52.60
80938;BME280;70395;51.382;7.074;2024-01-11T02:12:18;101891.81;;;-5.33;52.47
80938;BME280;70395;51.382;7.074;2024-01-11T02:14:45;101896.22;;;-5.34;52.48
80938;BME280;70395;51.382;7.074;2024-01-11T02:17:11;101897.09;;;-5.36;52.59
80938;BME280;70395;51.382;7.074;2024-01-11T02:19:37;101899.69;;;-5.43;53.13
80938;BME280;70395;51.382;7.074;2024-01-11T02:22:38;101893.63;;;-5.54;53.12
80938;BME280;70395;51.382;7.074;2024-01-11T02:25:03;101887.53;;;-5.64;53.23
80938;BME280;70395;51.382;7.074;2024-01-11T02:27:29;101888.41;;;-5.68;53.15
80938;BME280;70395;51.382;7.074;2024-01-11T02:29:55;101893.63;;;-5.71;53.14
80938;BME280;70395;51.382;7.074;2024-01-11T02:32:21;101901.47;;;-5.71;53.26
80938;BME280;70395;51.382;7.074;2024-01-11T02:34:48;101910.19;;;-5.71;53.08
80938;BME280;70395;51.382;7.074;2024-01-11T02:37:14;101900.63;;;-5.69;53.04
80938;BME280;70395;51.382;7.074;2024-01-11T02:39:41;101893.66;;;-5.68;52.99
80938;BME280;70395;51.382;7.074;2024-01-11T02:42:07;101897.13;;;-5.69;53.05
80938;BME280;70395;51.382;7.074;2024-01-11T02:44:32;101901.47;;;-5.71;53.05
80938;BME280;70395;51.382;7.074;2024-01-11T02:46:58;101898.88;;;-5.73;53.20
80938;BME280;70395;51.382;7.074;2024-01-11T02:49:24;101896.28;;;-5.78;53.02
80938;BME280;70395;51.382;7.074;2024-01-11T02:51:50;101889.28;;;-5.79;53.17
80938;BME280;70395;51.382;7.074;2024-01-11T02:54:15;101884.94;;;-5.77;53.01
80938;BME280;70395;51.382;7.074;2024-01-11T02:56:41;101890.16;;;-5.75;53.10
80938;BME280;70395;51.382;7.074;2024-01-11T02:59:07;101897.13;;;-5.74;53.04
80938;BME280;70395;51.382;7.074;2024-01-11T03:01:33;101902.34;;;-5.72;53.08
80938;BME280;70395;51.382;7.074;2024-01-11T03:03:59;101903.22;;;-5.72;53.04
80938;BME280;70395;51.382;7.074;2024-01-11T03:06:25;101907.56;;;-5.72;53.03
80938;BME280;70395;51.382;7.074;2024-01-11T03:08:51;101898.88;;;-5.76;53.08
80938;BME280;70395;51.382;7.074;2024-01-11T03:11:17;101907.59;;;-5.79;53.17
80938;BME280;70395;51.382;7.074;2024-01-11T03:13:43;101896.25;;;-5.82;53.18
80938;BME280;70395;51.382;7.074;2024-01-11T03:16:09;101901.50;;;-5.85;53.42
80938;BME280;70395;51.382;7.074;2024-01-11T03:18:34;101898.00;;;-5.89;53.46
80938;BME280;70395;51.382;7.074;2024-01-11T03:21:00;101894.50;;;-5.91;53.48
80938;BME280;70395;51.382;7.074;2024-01-11T03:23:26;101895.41;;;-5.95;53.73
80938;BME280;70395;51.382;7.074;2024-01-11T03:25:52;101896.25;;;-5.98;53.68
80938;BME280;70395;51.382;7.074;2024-01-11T03:28:18;101913.69;;;-5.99;53.63
80938;BME280;70395;51.382;7.074;2024-01-11T03:30:43;101913.69;;;-5.99;53.56
80938;BME280;70395;51.382;7.074;2024-01-11T03:33:09;101916.28;;;-5.97;53.46
80938;BME280;70395;51.382;7.074;2024-01-11T03:35:35;101911.94;;;-5.95;53.48
80938;BME280;70395;51.382;7.074;2024-01-11T03:38:01;101896.25;;;-5.96;53.40
80938;BME280;70395;51.382;7.074;2024-01-11T03:40:26;101891.03;;;-5.96;53.35
80938;BME280;70395;51.382;7.074;2024-01-11T03:42:52;101901.50;;;-5.98;53.42
80938;BME280;70395;51.382;7.074;2024-01-11T03:45:18;101907.59;;;-5.97;53.32
80938;BME280;70395;51.382;7.074;2024-01-11T03:47:47;101904.97;;;-5.97;53.18
80938;BME280;70395;51.382;7.074;2024-01-11T03:50:13;101929.34;;;-5.99;53.34
80938;BME280;70395;51.382;7.074;2024-01-11T03:52:39;101914.53;;;-6.01;53.34
80938;BME280;70395;51.382;7.074;2024-01-11T03:55:06;101918.88;;;-6.06;53.31
80938;BME280;70395;51.382;7.074;2024-01-11T03:57:32;101921.53;;;-6.11;53.61
80938;BME280;70395;51.382;7.074;2024-01-11T03:59:57;101920.66;;;-6.16;53.62
80938;BME280;70395;51.382;7.074;2024-01-11T04:02:25;101925.00;;;-6.20;53.66
80938;BME280;70395;51.382;7.074;2024-01-11T04:04:50;101935.44;;;-6.23;53.62
80938;BME280;70395;51.382;7.074;2024-01-11T04:07:16;101932.81;;;-6.26;54.12
80938;BME280;70395;51.382;7.074;2024-01-11T04:09:42;101930.19;;;-6.31;54.12
80938;BME280;70395;51.382;7.074;2024-01-11T04:12:08;101930.22;;;-6.34;54.02
80938;BME280;70395;51.382;7.074;2024-01-11T04:14:39;101931.06;;;-6.35;54.16
80938;BME280;70395;51.382;7.074;2024-01-11T04:17:07;101936.28;;;-6.35;54.10
80938;BME280;70395;51.382;7.074;2024-01-11T04:19:33;101942.38;;;-6.36;54.29
80938;BME280;70395;51.382;7.074;2024-01-11T04:21:59;101944.13;;;-6.35;54.07
80938;BME280;70395;51.382;7.074;2024-01-11T04:24:25;101945.88;;;-6.33;54.05
80938;BME280;70395;51.382;7.074;2024-01-11T04:26:50;101931.06;;;-6.30;53.86
80938;BME280;70395;51.382;7.074;2024-01-11T04:29:16;101937.19;;;-6.27;53.88
80938;BME280;70395;51.382;7.074;2024-01-11T04:31:42;101931.94;;;-6.24;53.86
80938;BME280;70395;51.382;7.074;2024-01-11T04:34:08;101948.50;;;-6.22;53.87
80938;BME280;70395;51.382;7.074;2024-01-11T04:36:37;101945.00;;;-6.19;54.22
80938;BME280;70395;51.382;7.074;2024-01-11T04:39:04;101955.47;;;-6.16;54.23
80938;BME280;70395;51.382;7.074;2024-01-11T04:41:31;101947.66;;;-6.16;54.17
80938;BME280;70395;51.382;7.074;2024-01-11T04:43:57;101952.00;;;-6.13;54.15
80938;BME280;70395;51.382;7.074;2024-01-11T04:46:23;101946.78;;;-6.12;54.15
80938;BME280;70395;51.382;7.074;2024-01-11T04:48:50;101940.69;;;-6.09;54.05
80938;BME280;70395;51.382;7.074;2024-01-11T04:51:18;101948.50;;;-6.06;54.13
80938;BME280;70395;51.382;7.074;2024-01-11T04:53:45;101959.84;;;-6.02;53.98
80938;BME280;70395;51.382;7.074;2024-01-11T04:56:14;101945.88;;;-6.00;54.04
80938;BME280;70395;51.382;7.074;2024-01-11T04:58:42;101949.38;;;-5.99;54.01
80938;BME280;70395;51.382;7.074;2024-01-11T05:01:16;101935.44;;;-6.01;54.05
80938;BME280;70395;51.382;7.074;2024-01-11T05:03:44;101933.72;;;-6.02;53.89
80938;BME280;70395;51.382;7.074;2024-01-11T05:06:22;101927.59;;;-6.06;53.96
80938;BME280;70395;51.382;7.074;2024-01-11T05:08:51;101949.38;;;-6.05;53.82
80938;BME280;70395;51.382;7.074;2024-01-11T05:11:24;101947.63;;;-6.06;53.85
80938;BME280;70395;51.382;7.074;2024-01-11T05:13:51;101948.50;;;-6.06;53.81
80938;BME280;70395;51.382;7.074;2024-01-11T05:16:26;101945.06;;;-6.08;53.80
80938;BME280;70395;51.382;7.074;2024-01-11T05:18:54;101953.75;;;-6.11;53.67
80938;BME280;70395;51.382;7.074;2024-01-11T05:21:20;101951.16;;;-6.12;53.85
80938;BME280;70395;51.382;7.074;2024-01-11T05:23:47;101957.22;;;-6.16;53.75
80938;BME280;70395;51.382;7.074;2024-01-11T05:26:16;101961.56;;;-6.20;53.77
80938;BME280;70395;51.382;7.074;2024-01-11T05:28:42;101964.16;;;-6.23;53.82
80938;BME280;70395;51.382;7.074;2024-01-11T05:31:13;101971.97;;;-6.26;53.93
80938;BME280;70395;51.382;7.074;2024-01-11T05:33:41;101971.13;;;-6.28;53.78
80938;BME280;70395;51.382;7.074;2024-01-11T05:36:07;101982.44;;;-6.28;53.92
80938;BME280;70395;51.382;7.074;2024-01-11T05:38:34;101987.66;;;-6.29;53.92
80938;BME280;70395;51.382;7.074;2024-01-11T05:41:01;101978.06;;;-6.30;53.83
80938;BME280;70395;51.382;7.074;2024-01-11T05:43:27;102000.72;;;-6.29;53.87
80938;BME280;70395;51.382;7.074;2024-01-11T05:45:53;102005.06;;;-6.30;53.95
80938;BME280;70395;51.382;7.074;2024-01-11T05:48:19;102011.16;;;-6.28;54.11
80938;BME280;70395;51.382;7.074;2024-01-11T05:50:45;102018.16;;;-6.27;54.21
80938;BME280;70395;51.382;7.074;2024-01-11T05:53:12;102018.13;;;-6.25;54.13
80938;BME280;70395;51.382;7.074;2024-01-11T05:55:39;102022.50;;;-6.23;54.06
80938;BME280;70395;51.382;7.074;2024-01-11T05:58:05;102027.75;;;-6.19;54.12
80938;BME280;70395;51.382;7.074;2024-01-11T06:00:31;102009.44;;;-6.16;53.98
80938;BME280;70395;51.382;7.074;2024-01-11T06:02:57;102007.72;;;-6.14;54.02
80938;BME280;70395;51.382;7.074;2024-01-11T06:05:23;102002.50;;;-6.14;53.94
80938;BME280;70395;51.382;7.074;2024-01-11T06:07:49;102004.25;;;-6.12;54.10
80938;BME280;70395;51.382;7.074;2024-01-11T06:10:15;102009.47;;;-6.08;54.05
80938;BME280;70395;51.382;7.074;2024-01-11T06:12:40;102010.38;;;-6.08;54.13
80938;BME280;70395;51.382;7.074;2024-01-11T06:15:07;102000.75;;;-6.04;54.06
80938;BME280;70395;51.382;7.074;2024-01-11T06:17:33;101999.03;;;-6.01;54.05
80938;BME280;70395;51.382;7.074;2024-01-11T06:19:59;101995.53;;;-6.00;54.07
80938;BME280;70395;51.382;7.074;2024-01-11T06:22:25;101994.66;;;-5.97;53.95
80938;BME280;70395;51.382;7.074;2024-01-11T06:24:50;102002.53;;;-5.95;54.23
80938;BME280;70395;51.382;7.074;2024-01-11T06:27:16;101983.38;;;-5.93;54.00
80938;BME280;70395;51.382;7.074;2024-01-11T06:29:42;101976.38;;;-5.92;54.02
80938;BME280;70395;51.382;7.074;2024-01-11T06:32:08;101965.91;;;-5.92;54.02
80938;BME280;70395;51.382;7.074;2024-01-11T06:34:35;101970.28;;;-5.91;54.15
80938;BME280;70395;51.382;7.074;2024-01-11T06:37:04;101981.63;;;-5.89;54.01
80938;BME280;70395;51.382;7.074;2024-01-11T06:39:29;101979.00;;;-5.89;54.14
80938;BME280;70395;51.382;7.074;2024-01-11T06:41:55;101986.00;;;-5.88;54.11
80938;BME280;70395;51.382;7.074;2024-01-11T06:44:21;101983.38;;;-5.88;54.01
80938;BME280;70395;51.382;7.074;2024-01-11T06:46:47;101979.88;;;-5.89;54.13
80938;BME280;70395;51.382;7.074;2024-01-11T06:49:13;101991.22;;;-5.88;54.10
80938;BME280;70395;51.382;7.074;2024-01-11T06:51:38;101996.44;;;-5.91;54.06
80938;BME280;70395;51.382;7.074;2024-01-11T06:54:05;102004.28;;;-5.87;54.62
80938;BME280;70395;51.382;7.074;2024-01-11T06:56:30;102009.53;;;-5.80;54.92
80938;BME280;70395;51.382;7.074;2024-01-11T06:58:56;102014.72;;;-5.77;54.88
80938;BME280;70395;51.382;7.074;2024-01-11T07:01:22;102016.50;;;-5.76;54.72
80938;BME280;70395;51.382;7.074;2024-01-11T07:03:48;102000.81;;;-5.78;54.64
80938;BME280;70395;51.382;7.074;2024-01-11T07:06:15;102016.47;;;-5.81;54.68
80938;BME280;70395;51.382;7.074;2024-01-11T07:08:41;102006.88;;;-5.82;54.64
80938;BME280;70395;51.382;7.074;2024-01-11T07:11:07;102006.91;;;-5.83;54.58
80938;BME280;70395;51.382;7.074;2024-01-11T07:13:33;102007.75;;;-5.84;54.68
80938;BME280;70395;51.382;7.074;2024-01-11T07:15:59;102006.03;;;-5.84;54.48
80938;BME280;70395;51.382;7.074;2024-01-11T07:18:26;102017.34;;;-5.83;54.56
80938;BME280;70395;51.382;7.074;2024-01-11T07:20:52;102023.47;;;-5.83;54.49
80938;BME280;70395;51.382;7.074;2024-01-11T07:23:19;102026.94;;;-5.85;54.83
80938;BME280;70395;51.382;7.074;2024-01-11T07:25:45;102033.88;;;-5.84;54.70
80938;BME280;70395;51.382;7.074;2024-01-11T07:28:11;102046.97;;;-5.84;54.70
80938;BME280;70395;51.382;7.074;2024-01-11T07:30:36;102052.19;;;-5.84;54.57
80938;BME280;70395;51.382;7.074;2024-01-11T07:33:02;102038.25;;;-5.83;54.71
80938;BME280;70395;51.382;7.074;2024-01-11T07:35:30;102046.97;;;-5.80;54.63
80938;BME280;70395;51.382;7.074;2024-01-11T07:37:57;102038.28;;;-5.79;54.51
80938;BME280;70395;51.382;7.074;2024-01-11T07:40:23;102040.03;;;-5.78;54.61
80938;BME280;70395;51.382;7.074;2024-01-11T07:42:49;102041.75;;;-5.78;54.45
80938;BME280;70395;51.382;7.074;2024-01-11T07:45:15;102036.53;;;-5.73;54.40
80938;BME280;70395;51.382;7.074;2024-01-11T07:47:42;102037.41;;;-5.73;54.39
80938;BME280;70395;51.382;7.074;2024-01-11T07:50:09;102028.69;;;-5.72;54.33
80938;BME280;70395;51.382;7.074;2024-01-11T07:52:39;102030.44;;;-5.69;54.31
80938;BME280;70395;51.382;7.074;2024-01-11T07:55:08;102026.97;;;-5.68;54.43
80938;BME280;70395;51.382;7.074;2024-01-11T07:57:36;102023.47;;;-5.67;54.44
80938;BME280;70395;51.382;7.074;2024-01-11T08:00:04;102020.88;;;-5.66;54.31
80938;BME280;70395;51.382;7.074;2024-01-11T08:02:33;102026.09;;;-5.61;54.34
80938;BME280;70395;51.382;7.074;2024-01-11T08:04:59;102020.84;;;-5.58;54.26
80938;BME280;70395;51.382;7.074;2024-01-11T08:07:28;102026.13;;;-5.53;54.35
80938;BME280;70395;51.382;7.074;2024-01-11T08:09:55;102030.47;;;-5.49;54.32
80938;BME280;70395;51.382;7.074;2024-01-11T08:12:21;102023.50;;;-5.44;54.26
80938;BME280;70395;51.382;7.074;2024-01-11T08:14:47;102018.25;;;-5.37;54.27
80938;BME280;70395;51.382;7.074;2024-01-11T08:17:14;102020.88;;;-5.33;54.39
80938;BME280;70395;51.382;7.074;2024-01-11T08:19:41;102019.13;;;-5.27;54.37
80938;BME280;70395;51.382;7.074;2024-01-11T08:22:10;102001.69;;;-5.22;54.42
80938;BME280;70395;51.382;7.074;2024-01-11T08:24:36;102006.91;;;-5.16;54.37
80938;BME280;70395;51.382;7.074;2024-01-11T08:27:02;102013.00;;;-5.06;54.56
80938;BME280;70395;51.382;7.074;2024-01-11T08:29:28;102023.47;;;-4.95;54.53
80938;BME280;70395;51.382;7.074;2024-01-11T08:31:54;102025.19;;;-4.86;54.55
80938;BME280;70395;51.382;7.074;2024-01-11T08:34:21;102028.66;;;-4.78;54.48
80938;BME280;70395;51.382;7.074;2024-01-11T08:36:47;102026.03;;;-4.70;54.45
80938;BME280;70395;51.382;7.074;2024-01-11T08:39:13;102028.63;;;-4.64;54.31
80938;BME280;70395;51.382;7.074;2024-01-11T08:41:42;102046.94;;;-4.59;54.28
80938;BME280;70395;51.382;7.074;2024-01-11T08:44:09;102046.03;;;-4.52;54.18
80938;BME280;70395;51.382;7.074;2024-01-11T08:46:35;102045.13;;;-4.44;54.22
80938;BME280;70395;51.382;7.074;2024-01-11T08:49:02;102052.97;;;-4.36;54.23
80938;BME280;70395;51.382;7.074;2024-01-11T08:51:31;102041.56;;;-4.27;54.13
80938;BME280;70395;51.382;7.074;2024-01-11T08:53:58;102045.94;;;-4.19;54.18
80938;BME280;70395;51.382;7.074;2024-01-11T08:56:24;102061.63;;;-4.11;54.05
80938;BME280;70395;51.382;7.074;2024-01-11T08:58:49;102065.94;;;-4.02;54.29
80938;BME280;70395;51.382;7.074;2024-01-11T09:01:16;102057.16;;;-3.93;54.11
80938;BME280;70395;51.382;7.074;2024-01-11T09:03:42;102062.28;;;-3.76;54.30
80938;BME280;70395;51.382;7.074;2024-01-11T09:06:08;102082.28;;;-3.54;53.97
80938;BME280;70395;51.382;7.074;2024-01-11T09:08:33;102067.22;;;-3.29;54.22
80938;BME280;70395;51.382;7.074;2024-01-11T09:11:00;102060.91;;;-3.02;54.12
80938;BME280;70395;51.382;7.074;2024-01-11T09:13:29;102071.97;;;-2.70;53.98
80938;BME280;70395;51.382;7.074;2024-01-11T09:15:55;102080.25;;;-2.28;53.95
80938;BME280;70395;51.382;7.074;2024-01-11T09:18:21;102080.44;;;-1.74;53.96
80938;BME280;70395;51.382;7.074;2024-01-11T09:20:47;102075.94;;;-1.07;53.58
80938;BME280;70395;51.382;7.074;2024-01-11T09:23:15;102076.50;;;-0.40;53.45
80938;BME280;70395;51.382;7.074;2024-01-11T09:25:41;102077.59;;;0.32;52.87
80938;BME280;70395;51.382;7.074;2024-01-11T09:28:07;102075.16;;;0.99;52.67
80938;BME280;70395;51.382;7.074;2024-01-11T09:30:33;102076.44;;;1.51;52.25
80938;BME280;70395;51.382;7.074;2024-01-11T09:32:59;102081.44;;;1.94;51.91
80938;BME280;70395;51.382;7.074;2024-01-11T09:35:25;102086.03;;;2.46;51.57
80938;BME280;70395;51.382;7.074;2024-01-11T09:37:51;102094.31;;;2.91;51.28
80938;BME280;70395;51.382;7.074;2024-01-11T09:40:18;102094.84;;;3.29;50.59
80938;BME280;70395;51.382;7.074;2024-01-11T09:42:44;102086.66;;;3.60;50.09
80938;BME280;70395;51.382;7.074;2024-01-11T09:45:15;102086.59;;;3.86;49.88
80938;BME280;70395;51.382;7.074;2024-01-11T09:47:43;102085.78;;;4.08;49.48
80938;BME280;70395;51.382;7.074;2024-01-11T09:50:13;102093.81;;;4.07;49.11
80938;BME280;70395;51.382;7.074;2024-01-11T09:52:49;102088.31;;;4.11;49.26
80938;BME280;70395;51.382;7.074;2024-01-11T09:55:17;102094.16;;;4.21;48.92
80938;BME280;70395;51.382;7.074;2024-01-11T09:57:46;102095.81;;;4.24;48.77
80938;BME280;70395;51.382;7.074;2024-01-11T10:00:34;102092.19;;;4.26;48.38
80938;BME280;70395;51.382;7.074;2024-01-11T10:03:00;102100.28;;;4.46;48.17
80938;BME280;70395;51.382;7.074;2024-01-11T10:05:28;102102.03;;;4.69;47.55
80938;BME280;70395;51.382;7.074;2024-01-11T10:07:55;102094.16;;;4.89;47.16
80938;BME280;70395;51.382;7.074;2024-01-11T10:10:21;102097.28;;;5.20;46.99
80938;BME280;70395;51.382;7.074;2024-01-11T10:12:47;102106.13;;;5.62;46.46
80938;BME280;70395;51.382;7.074;2024-01-11T10:15:14;102114.06;;;6.02;45.58
80938;BME280;70395;51.382;7.074;2024-01-11T10:17:44;102106.56;;;6.32;44.76
80938;BME280;70395;51.382;7.074;2024-01-11T10:20:15;102097.13;;;6.61;44.09
80938;BME280;70395;51.382;7.074;2024-01-11T10:22:43;102107.13;;;6.93;44.18
80938;BME280;70395;51.382;7.074;2024-01-11T10:25:11;102108.72;;;7.33;43.72
80938;BME280;70395;51.382;7.074;2024-01-11T10:27:40;102103.75;;;7.77;43.16
80938;BME280;70395;51.382;7.074;2024-01-11T10:30:07;102117.97;;;8.28;42.18
80938;BME280;70395;51.382;7.074;2024-01-11T10:32:34;102127.38;;;8.84;41.38
80938;BME280;70395;51.382;7.074;2024-01-11T10:35:03;102127.25;;;9.47;41.03
80938;BME280;70395;51.382;7.074;2024-01-11T10:37:31;102119.78;;;10.11;39.89
80938;BME280;70395;51.382;7.074;2024-01-11T10:40:05;102119.66;;;10.69;38.55
80938;BME280;70395;51.382;7.074;2024-01-11T10:42:43;102126.13;;;11.34;38.06
80938;BME280;70395;51.382;7.074;2024-01-11T10:45:17;102127.75;;;11.89;36.81
80938;BME280;70395;51.382;7.074;2024-01-11T10:47:50;102127.88;;;12.38;35.82
80938;BME280;70395;51.382;7.074;2024-01-11T10:50:18;102119.41;;;12.80;35.41
80938;BME280;70395;51.382;7.074;2024-01-11T10:53:02;102118.31;;;13.19;34.98
80938;BME280;70395;51.382;7.074;2024-01-11T10:55:33;102116.69;;;13.64;34.66
80938;BME280;70395;51.382;7.074;2024-01-11T10:58:01;102104.41;;;14.06;33.79
80938;BME280;70395;51.382;7.074;2024-01-11T11:00:31;102112.44;;;14.40;32.97
80938;BME280;70395;51.382;7.074;2024-01-11T11:02:59;102113.56;;;14.71;32.53
80938;BME280;70395;51.382;7.074;2024-01-11T11:05:28;102105.88;;;14.99;32.17
80938;BME280;70395;51.382;7.074;2024-01-11T11:07:56;102110.88;;;15.25;31.47
80938;BME280;70395;51.382;7.074;2024-01-11T11:10:24;102100.91;;;15.47;30.89
80938;BME280;70395;51.382;7.074;2024-01-11T11:12:54;102097.28;;;15.68;30.65
80938;BME280;70395;51.382;7.074;2024-01-11T11:15:23;102105.63;;;15.86;30.07
80938;BME280;70395;51.382;7.074;2024-01-11T11:17:50;102110.13;;;15.76;30.02
80938;BME280;70395;51.382;7.074;2024-01-11T11:20:16;102106.75;;;15.84;29.97
80938;BME280;70395;51.382;7.074;2024-01-11T11:22:43;102097.34;;;16.09;29.93
80938;BME280;70395;51.382;7.074;2024-01-11T11:25:24;102093.84;;;16.39;29.45
80938;BME280;70395;51.382;7.074;2024-01-11T11:27:51;102101.22;;;16.57;28.99
80938;BME280;70395;51.382;7.074;2024-01-11T11:30:19;102087.84;;;16.45;28.77
80938;BME280;70395;51.382;7.074;2024-01-11T11:32:46;102084.25;;;16.35;28.88
80938;BME280;70395;51.382;7.074;2024-01-11T11:35:12;102083.81;;;16.09;28.85
80938;BME280;70395;51.382;7.074;2024-01-11T11:37:40;102078.41;;;15.47;28.45
80938;BME280;70395;51.382;7.074;2024-01-11T11:40:09;102085.00;;;14.68;29.08
80938;BME280;70395;51.382;7.074;2024-01-11T11:42:36;102091.91;;;14.16;29.90
80938;BME280;70395;51.382;7.074;2024-01-11T11:45:03;102084.47;;;13.74;29.24
80938;BME280;70395;51.382;7.074;2024-01-11T11:47:37;102082.94;;;13.12;29.44
80938;BME280;70395;51.382;7.074;2024-01-11T11:50:11;102085.09;;;12.71;30.21
80938;BME280;70395;51.382;7.074;2024-01-11T11:52:39;102076.84;;;12.61;30.00
80938;BME280;70395;51.382;7.074;2024-01-11T11:55:07;102072.13;;;12.65;30.26
80938;BME280;70395;51.382;7.074;2024-01-11T11:57:35;102067.63;;;12.77;29.50
80938;BME280;70395;51.382;7.074;2024-01-11T12:00:02;102060.97;;;12.94;29.36
80938;BME280;70395;51.382;7.074;2024-01-11T12:02:32;102059.66;;;13.11;29.46
80938;BME280;70395;51.382;7.074;2024-01-11T12:05:02;102050.25;;;13.28;28.64
80938;BME280;70395;51.382;7.074;2024-01-11T12:07:29;102044.50;;;13.33;28.47
80938;BME280;70395;51.382;7.074;2024-01-11T12:09:55;102052.06;;;13.28;28.37
80938;BME280;70395;51.382;7.074;2024-01-11T12:12:22;102040.31;;;13.17;28.32
80938;BME280;70395;51.382;7.074;2024-01-11T12:14:48;102048.75;;;13.01;28.22
80938;BME280;70395;51.382;7.074;2024-01-11T12:17:15;102054.03;;;12.78;28.24
80938;BME280;70395;51.382;7.074;2024-01-11T12:19:41;102061.16;;;12.43;28.63
80938;BME280;70395;51.382;7.074;2024-01-11T12:22:08;102053.53;;;11.99;28.76
80938;BME280;70395;51.382;7.074;2024-01-11T12:24:34;102059.22;;;11.57;29.12
80938;BME280;70395;51.382;7.074;2024-01-11T12:27:01;102066.53;;;11.15;29.78
80938;BME280;70395;51.382;7.074;2024-01-11T12:29:30;102059.34;;;10.75;29.90
80938;BME280;70395;51.382;7.074;2024-01-11T12:31:57;102069.78;;;10.52;30.33
80938;BME280;70395;51.382;7.074;2024-01-11T12:34:28;102077.31;;;10.32;30.68
80938;BME280;70395;51.382;7.074;2024-01-11T12:36:54;102079.84;;;10.21;30.61
80938;BME280;70395;51.382;7.074;2024-01-11T12:39:24;102072.81;;;10.05;30.98
80938;BME280;70395;51.382;7.074;2024-01-11T12:41:52;102070.53;;;9.84;30.91
80938;BME280;70395;51.382;7.074;2024-01-11T12:44:20;102073.03;;;9.58;31.48
80938;BME280;70395;51.382;7.074;2024-01-11T12:46:48;102069.47;;;9.28;31.66
80938;BME280;70395;51.382;7.074;2024-01-11T12:49:15;102073.63;;;9.03;31.88